Time;durP1;ratioP1;P1;durP2;ratioP2;P2;SDS_P1;SDS_P2;PMS_P1;PMS_P2;Temp;Humidity;BMP_temperature;BMP_pressure;BME280_temperature;BME280_humidity;BME280_pressure;Samples;Min_cycle;Max_cycle;Signal;HPM_P1;HPM_P2
2021/07/20 00:00:52;;;;;;;19.42;9.18;;;;;;;19.80;74.30;98287.63;5110620;28;20089;-69
2021/07/20 00:03:18;;;;;;;16.98;9.95;;;;;;;19.77;74.56;98284.78;5112252;28;20446;-67
2021/07/20 00:05:44;;;;;;;16.35;9.57;;;;;;;19.74;74.86;98286.22;5111844;28;20103;-68
2021/07/20 00:08:11;;;;;;;19.80;10.40;;;;;;;19.70;74.55;98283.38;5110513;28;20039;-69
2021/07/20 00:10:39;;;;;;;21.85;12.45;;;;;;;19.70;74.93;98294.13;5112033;28;20058;-66
2021/07/20 00:13:06;;;;;;;19.40;11.43;;;;;;;19.67;75.24;98292.09;5112063;28;20093;-69
2021/07/20 00:15:33;;;;;;;20.75;12.90;;;;;;;19.63;75.58;98293.03;5112057;28;20046;-68
2021/07/20 00:18:03;;;;;;;14.75;10.55;;;;;;;19.59;75.94;98290.22;5111831;28;20073;-69
2021/07/20 00:20:29;;;;;;;16.30;9.70;;;;;;;19.58;75.93;98288.63;5110647;28;20046;-68
2021/07/20 00:22:55;;;;;;;16.77;10.45;;;;;;;19.52;76.01;98289.91;5110288;28;20035;-67
2021/07/20 00:25:21;;;;;;;15.68;10.10;;;;;;;19.47;76.24;98282.84;5110586;28;20047;-69
2021/07/20 00:27:47;;;;;;;19.25;11.95;;;;;;;19.45;76.29;98293.13;5111950;28;20058;-68
2021/07/20 00:30:14;;;;;;;19.50;11.50;;;;;;;19.47;76.50;98293.59;5110312;28;20417;-67
2021/07/20 00:32:42;;;;;;;11.07;8.02;;;;;;;19.46;76.10;98289.31;5093509;28;20451;-67
2021/07/20 00:35:12;;;;;;;13.90;9.63;;;;;;;19.43;75.95;98300.69;5111816;28;20035;-67
2021/07/20 00:37:38;;;;;;;20.45;10.75;;;;;;;19.44;76.10;98298.81;5110101;28;20403;-67
2021/07/20 00:40:07;;;;;;;13.23;9.57;;;;;;;19.42;76.24;98288.38;5093489;28;20068;-67
2021/07/20 00:42:34;;;;;;;13.63;8.95;;;;;;;19.40;76.23;98279.06;5109730;28;20050;-66
2021/07/20 00:45:00;;;;;;;15.88;9.65;;;;;;;19.39;76.36;98282.88;5059668;28;20047;-68
2021/07/20 00:47:26;;;;;;;16.88;9.98;;;;;;;19.35;76.43;98281.94;5110002;28;20063;-68
2021/07/20 00:49:52;;;;;;;12.48;9.25;;;;;;;19.29;76.49;98284.81;5092398;28;20047;-68
2021/07/20 00:52:18;;;;;;;15.02;10.63;;;;;;;19.27;76.91;98283.56;5092682;28;20658;-68
2021/07/20 00:54:45;;;;;;;16.45;9.85;;;;;;;19.25;76.76;98285.75;5109183;28;20075;-69
2021/07/20 00:57:12;;;;;;;15.80;10.20;;;;;;;19.23;76.84;98285.28;5109930;28;20052;-68
2021/07/20 00:59:39;;;;;;;15.50;10.63;;;;;;;19.20;77.01;98291.31;5110921;28;20053;-69
2021/07/20 01:02:06;;;;;;;13.63;10.65;;;;;;;19.13;77.39;98291.78;5109869;28;20044;-68
2021/07/20 01:04:32;;;;;;;15.68;9.82;;;;;;;19.06;77.08;98278.88;5109409;28;20050;-69
2021/07/20 01:07:00;;;;;;;17.65;10.75;;;;;;;19.07;77.58;98282.34;5110113;28;20124;-68
2021/07/20 01:09:27;;;;;;;14.45;9.13;;;;;;;19.02;77.00;98285.19;5091829;28;20051;-69
2021/07/20 01:11:55;;;;;;;17.15;10.95;;;;;;;18.99;77.33;98291.97;5109952;28;20051;-68
2021/07/20 01:14:22;;;;;;;14.25;9.77;;;;;;;18.95;77.43;98288.38;5111229;28;20048;-68
2021/07/20 01:16:49;;;;;;;13.05;9.82;;;;;;;18.94;77.38;98281.44;5076261;28;20081;-67
2021/07/20 01:19:16;;;;;;;14.15;9.77;;;;;;;18.88;77.45;98274.63;5095201;28;20134;-68
2021/07/20 01:21:43;;;;;;;14.88;9.27;;;;;;;18.92;77.56;98280.94;5113889;28;20120;-68
2021/07/20 01:24:16;;;;;;;14.65;10.30;;;;;;;18.94;77.03;98281.44;5097122;28;20107;-69
2021/07/20 01:26:43;;;;;;;19.15;10.98;;;;;;;18.92;76.96;98285.53;5114042;28;20050;-68
2021/07/20 01:29:11;;;;;;;14.07;10.23;;;;;;;18.87;77.32;98280.31;5114017;28;20040;-68
2021/07/20 01:31:41;;;;;;;13.60;9.73;;;;;;;18.83;77.02;98285.56;5097352;28;20051;-68
2021/07/20 01:34:12;;;;;;;14.75;9.40;;;;;;;18.82;76.96;98281.28;5114067;28;20043;-67
2021/07/20 01:36:41;;;;;;;15.07;9.48;;;;;;;18.80;76.89;98286.19;5097094;28;20081;-68
2021/07/20 01:39:09;;;;;;;16.52;9.75;;;;;;;18.78;76.43;98286.50;5079799;28;20039;-69
2021/07/20 01:41:41;;;;;;;15.85;9.13;;;;;;;18.77;76.27;98287.59;5097015;28;20044;-69
2021/07/20 01:44:11;;;;;;;20.63;9.48;;;;;;;18.75;76.29;98297.09;5113785;28;20050;-69
2021/07/20 01:46:40;;;;;;;14.05;9.10;;;;;;;18.78;76.28;98291.88;5096901;28;20079;-68
2021/07/20 01:49:13;;;;;;;15.73;9.25;;;;;;;18.89;75.61;98294.22;5115197;28;20408;-69
2021/07/20 01:51:42;;;;;;;14.57;8.93;;;;;;;19.04;75.06;98291.81;5096991;28;20043;-69
2021/07/20 01:54:09;;;;;;;13.23;8.70;;;;;;;19.22;74.06;98292.56;5079649;28;20069;-68
2021/07/20 01:56:35;;;;;;;12.70;8.90;;;;;;;19.44;73.36;98296.94;5113334;28;20044;-67
2021/07/20 01:59:03;;;;;;;13.52;9.13;;;;;;;19.59;72.65;98294.78;5096747;28;20070;-68
2021/07/20 02:01:35;;;;;;;12.52;9.10;;;;;;;19.78;71.92;98289.06;5096550;28;20051;-67
2021/07/20 02:04:23;;;;;;;13.93;9.05;;;;;;;19.98;70.87;98282.91;5113335;28;20039;-67
2021/07/20 02:09:36;;;;;;;13.55;8.77;;;;;;;20.51;68.88;98283.34;5098943;28;20134;-67
2021/07/20 02:12:12;;;;;;;13.70;9.32;;;;;;;20.80;67.75;98291.34;5096418;28;20489;-67
2021/07/20 02:14:57;;;;;;;11.88;8.80;;;;;;;21.08;66.54;98279.94;5113383;28;20048;-68
2021/07/20 02:17:53;;;;;;;12.95;8.65;;;;;;;21.38;65.14;98288.69;5091056;28;20062;-68
2021/07/20 02:20:23;;;;;;;14.65;8.70;;;;;;;21.57;64.50;98292.75;5096197;28;20044;-68
2021/07/20 02:23:11;;;;;;;15.07;8.68;;;;;;;21.90;63.24;98290.72;5113496;28;20039;-69
2021/07/20 02:25:38;;;;;;;12.23;8.52;;;;;;;22.16;62.29;98294.97;5112795;28;20044;-68
2021/07/20 02:28:07;;;;;;;12.97;8.53;;;;;;;22.43;61.29;98294.22;5113089;28;20047;-68
2021/07/20 02:30:38;;;;;;;12.90;8.57;;;;;;;22.62;60.67;98293.63;5096429;28;20305;-67
2021/07/20 02:33:05;;;;;;;13.93;9.23;;;;;;;22.71;60.37;98296.19;5095890;28;20594;-68
2021/07/20 02:35:34;;;;;;;15.18;9.45;;;;;;;22.76;59.54;98298.63;5112275;28;20059;-68
2021/07/20 02:38:01;;;;;;;11.85;7.88;;;;;;;22.75;59.67;98298.97;5112921;28;20036;-68
2021/07/20 02:40:31;;;;;;;14.55;8.45;;;;;;;22.74;59.92;98297.41;5112802;28;20130;-68
2021/07/20 02:43:00;;;;;;;13.63;8.43;;;;;;;22.77;59.13;98302.91;5095567;28;20039;-69
2021/07/20 02:45:32;;;;;;;16.75;8.10;;;;;;;22.89;58.72;98299.38;5079337;28;20087;-68
2021/07/20 02:47:59;;;;;;;12.88;8.40;;;;;;;22.98;58.72;98293.84;5095722;28;20035;-69
2021/07/20 02:50:29;;;;;;;11.77;7.75;;;;;;;23.01;58.34;98301.25;5095284;28;20071;-68
2021/07/20 02:53:07;;;;;;;16.80;8.77;;;;;;;23.00;58.18;98302.34;5112342;28;20051;-68
2021/07/20 02:55:43;;;;;;;10.55;7.57;;;;;;;22.96;58.24;98302.28;5096919;28;20124;-68
2021/07/20 02:58:09;;;;;;;10.98;7.82;;;;;;;22.95;57.95;98302.63;5112589;28;20114;-69
2021/07/20 03:00:38;;;;;;;11.38;7.53;;;;;;;23.03;57.98;98298.97;5094979;28;20051;-68
2021/07/20 03:03:05;;;;;;;14.63;8.57;;;;;;;23.18;57.53;98310.94;5094906;28;20312;-68
2021/07/20 03:05:41;;;;;;;12.15;7.93;;;;;;;23.19;56.80;98305.19;5096331;28;20449;-67
2021/07/20 03:08:08;;;;;;;10.82;7.95;;;;;;;23.29;57.10;98317.41;5095064;28;20049;-67
2021/07/20 03:10:45;;;;;;;13.43;7.57;;;;;;;23.20;56.82;98311.38;5111889;28;20566;-67
2021/07/20 03:13:12;;;;;;;15.43;7.57;;;;;;;23.16;56.98;98315.91;5094921;28;20052;-68
2021/07/20 03:15:46;;;;;;;11.50;7.43;;;;;;;23.12;57.01;98305.81;5096185;28;20105;-68
2021/07/20 03:18:13;;;;;;;10.93;7.72;;;;;;;23.26;56.44;98310.75;5113002;28;20114;-69
2021/07/20 03:20:40;;;;;;;10.73;7.47;;;;;;;23.32;55.98;98317.50;5094959;28;20036;-67
2021/07/20 03:23:09;;;;;;;12.32;7.57;;;;;;;23.38;55.57;98323.41;5111785;28;20035;-67
2021/07/20 03:25:42;;;;;;;11.65;7.97;;;;;;;23.35;55.53;98318.72;5095250;28;20055;-68
2021/07/20 03:28:08;;;;;;;11.50;6.90;;;;;;;23.47;55.21;98323.25;5111691;28;20126;-68
2021/07/20 03:30:37;;;;;;;9.60;7.30;;;;;;;23.43;54.84;98317.75;5078516;28;20305;-67
2021/07/20 03:33:10;;;;;;;10.88;6.70;;;;;;;23.66;54.45;98322.56;5111783;28;20501;-67
2021/07/20 03:35:45;;;;;;;11.57;7.20;;;;;;;23.80;53.63;98312.13;5095596;28;20040;-67
2021/07/20 03:38:11;;;;;;;14.85;7.70;;;;;;;24.07;53.03;98321.25;5111303;28;20043;-68
2021/07/20 03:40:41;;;;;;;13.10;7.33;;;;;;;24.27;52.37;98322.06;5094474;28;20143;-67
2021/07/20 03:43:07;;;;;;;11.05;6.70;;;;;;;24.26;52.44;98313.13;5077518;28;20294;-67
2021/07/20 03:45:33;;;;;;;10.40;6.75;;;;;;;24.24;52.28;98320.84;5094030;28;20048;-67
2021/07/20 03:47:59;;;;;;;13.38;7.22;;;;;;;24.24;52.61;98315.44;5111556;28;20462;-68
2021/07/20 03:50:44;;;;;;;12.57;7.30;;;;;;;24.54;51.83;98306.78;5079662;28;20579;-67
2021/07/20 03:53:11;;;;;;;15.82;7.38;;;;;;;24.74;51.37;98317.59;5111010;28;20035;-68
2021/07/20 03:55:40;;;;;;;10.85;6.80;;;;;;;24.76;51.21;98318.03;5110946;28;20501;-68
2021/07/20 03:58:07;;;;;;;11.85;7.10;;;;;;;24.85;51.31;98321.31;5111130;28;20445;-67
2021/07/20 04:00:34;;;;;;;11.77;7.15;;;;;;;24.99;50.95;98318.88;5110876;28;20501;-66
2021/07/20 04:06:08;;;;;;;14.38;7.13;;;;;;;24.90;51.22;98321.81;5090288;28;20075;-68
2021/07/20 04:08:44;;;;;;;13.52;6.97;;;;;;;24.87;51.37;98322.53;5095181;28;20130;-67
2021/07/20 04:11:15;;;;;;;12.93;6.90;;;;;;;24.98;50.77;98330.09;5094394;28;20130;-68
2021/07/20 04:13:48;;;;;;;9.15;6.85;;;;;;;25.20;50.99;98326.66;5110626;28;20100;-67
2021/07/20 04:16:25;;;;;;;12.35;7.50;;;;;;;25.37;49.76;98320.75;5093686;28;20048;-68
2021/07/20 04:18:51;;;;;;;8.15;6.35;;;;;;;25.48;49.90;98326.38;5093776;28;20042;-68
2021/07/20 04:21:23;;;;;;;11.18;7.13;;;;;;;25.58;49.41;98328.47;5110399;28;20504;-69
2021/07/20 04:23:51;;;;;;;9.52;6.93;;;;;;;25.60;48.97;98334.31;5093884;28;20039;-69
2021/07/20 04:26:28;;;;;;;12.35;6.97;;;;;;;25.62;49.26;98328.53;5110556;28;20447;-68
2021/07/20 04:28:56;;;;;;;15.95;7.13;;;;;;;25.87;49.39;98334.38;5076873;28;20071;-69
2021/07/20 04:31:24;;;;;;;12.98;6.78;;;;;;;25.98;49.14;98332.63;5092579;28;20056;-67
2021/07/20 04:33:52;;;;;;;10.00;6.93;;;;;;;26.16;48.60;98332.88;5110275;28;20042;-67
2021/07/20 04:36:34;;;;;;;9.45;6.82;;;;;;;26.33;47.91;98333.50;5095462;28;20148;-68
2021/07/20 04:39:11;;;;;;;11.30;6.90;;;;;;;26.38;48.08;98327.72;5110375;28;20400;-69
2021/07/20 04:41:38;;;;;;;9.20;6.78;;;;;;;26.40;47.33;98320.00;5110334;28;20071;-69
2021/07/20 04:44:05;;;;;;;11.63;7.45;;;;;;;26.44;47.47;98337.91;5110627;28;20043;-69
2021/07/20 04:46:46;;;;;;;11.70;7.43;;;;;;;26.35;47.44;98336.59;5110000;28;20579;-68
2021/07/20 04:49:15;;;;;;;11.50;7.25;;;;;;;26.34;47.95;98343.19;5110758;28;20031;-68
2021/07/20 04:51:42;;;;;;;12.85;7.15;;;;;;;26.28;48.41;98350.88;5111778;28;20054;-69
2021/07/20 04:54:10;;;;;;;12.85;7.15;;;;;;;26.26;48.45;98347.75;5114487;28;20097;-69
2021/07/20 04:56:37;;;;;;;11.80;7.63;;;;;;;26.40;47.93;98345.22;5114322;28;20063;-70
2021/07/20 04:59:03;;;;;;;13.30;7.50;;;;;;;26.57;47.71;98346.63;5115664;28;20122;-70
2021/07/20 05:01:32;;;;;;;11.85;7.72;;;;;;;26.63;47.52;98345.16;5114449;28;20051;-70
2021/07/20 05:04:01;;;;;;;11.68;7.78;;;;;;;26.74;46.88;98342.59;5080908;28;20050;-69
2021/07/20 05:06:38;;;;;;;10.00;7.47;;;;;;;26.80;46.71;98345.75;5113725;28;20043;-70
2021/07/20 05:09:05;;;;;;;13.95;7.97;;;;;;;26.63;46.93;98349.81;5097168;28;20078;-67
2021/07/20 05:11:34;;;;;;;9.90;7.70;;;;;;;26.42;47.55;98342.16;5097081;28;20047;-68
2021/07/20 05:14:00;;;;;;;12.27;7.57;;;;;;;26.38;48.45;98352.16;5115302;28;20520;-68
2021/07/20 05:16:27;;;;;;;12.25;7.57;;;;;;;26.22;48.92;98349.63;5096794;28;20369;-67
2021/07/20 05:19:01;;;;;;;11.27;7.80;;;;;;;26.00;49.29;98351.25;5113957;28;20092;-69
2021/07/20 05:21:46;;;;;;;11.93;7.25;;;;;;;25.97;49.34;98360.13;5115407;28;20065;-68
2021/07/20 05:24:16;;;;;;;10.93;7.28;;;;;;;25.95;49.65;98355.06;5097831;28;20036;-69
2021/07/20 05:26:46;;;;;;;10.20;6.88;;;;;;;25.84;49.70;98364.97;5114097;28;20043;-69
2021/07/20 05:29:15;;;;;;;11.55;7.60;;;;;;;25.82;49.60;98369.97;5097860;28;20088;-69
2021/07/20 05:31:49;;;;;;;12.68;7.45;;;;;;;25.57;49.94;98364.88;5098103;28;20462;-69
2021/07/20 05:34:16;;;;;;;10.68;7.50;;;;;;;25.35;50.14;98363.75;5113598;28;20050;-68
2021/07/20 05:36:44;;;;;;;12.18;7.93;;;;;;;25.20;50.75;98367.31;5080224;28;20134;-68
2021/07/20 05:39:15;;;;;;;13.68;8.48;;;;;;;24.91;51.17;98361.34;5113630;28;20070;-68
2021/07/20 05:41:45;;;;;;;11.57;8.20;;;;;;;24.94;51.08;98373.38;5081163;28;20039;-69
2021/07/20 05:44:15;;;;;;;10.07;7.32;;;;;;;24.84;51.32;98374.75;5113574;28;20563;-69
2021/07/20 05:46:47;;;;;;;10.93;7.75;;;;;;;24.72;51.22;98382.25;5079794;28;20062;-69
2021/07/20 05:49:15;;;;;;;12.98;7.80;;;;;;;24.56;51.02;98372.25;5096433;28;20052;-69
2021/07/20 05:51:42;;;;;;;13.40;7.70;;;;;;;24.56;51.51;98382.28;5113590;28;20051;-71
2021/07/20 05:54:11;;;;;;;11.05;7.38;;;;;;;24.49;51.02;98374.78;5096768;28;20039;-69
2021/07/20 05:56:57;;;;;;;11.57;8.02;;;;;;;24.42;51.72;98385.44;5099231;28;20059;-70
2021/07/20 05:59:51;;;;;;;10.32;7.90;;;;;;;24.51;51.55;98382.56;5100088;28;20514;-78
2021/07/20 06:02:21;;;;;;;11.73;7.15;;;;;;;24.48;49.52;98392.97;5096631;28;20075;-75
2021/07/20 06:04:50;;;;;;;13.80;7.77;;;;;;;24.35;49.20;98396.88;5112708;28;20048;-75
2021/07/20 06:07:16;;;;;;;14.45;7.78;;;;;;;24.26;49.67;98386.25;5113146;28;20103;-69
2021/07/20 06:09:45;;;;;;;11.40;7.15;;;;;;;24.25;49.15;98384.69;5065750;28;20630;-74
2021/07/20 06:12:13;;;;;;;10.75;6.68;;;;;;;24.25;48.98;98386.63;5071986;28;20094;-70
2021/07/20 06:14:39;;;;;;;10.25;7.28;;;;;;;24.21;49.10;98393.88;5072556;28;20070;-68
2021/07/20 06:17:05;;;;;;;11.15;7.00;;;;;;;24.17;49.05;98393.78;5072167;28;20131;-70
2021/07/20 06:19:32;;;;;;;9.32;6.47;;;;;;;24.03;48.08;98396.16;5073195;28;20033;-69
2021/07/20 06:22:01;;;;;;;7.57;6.22;;;;;;;24.01;48.13;98390.31;5072120;28;20417;-72
2021/07/20 06:24:32;;;;;;;9.27;6.00;;;;;;;23.95;47.78;98403.31;5071291;28;20130;-68
2021/07/20 06:26:59;;;;;;;11.25;6.20;;;;;;;23.92;48.82;98395.91;5071889;28;20406;-69
2021/07/20 06:29:25;;;;;;;9.45;6.25;;;;;;;23.90;47.64;98389.28;5072128;28;20047;-69
2021/07/20 06:31:51;;;;;;;10.52;6.43;;;;;;;23.95;47.63;98395.22;5073106;28;20063;-70
2021/07/20 06:34:18;;;;;;;8.77;6.43;;;;;;;24.00;48.33;98392.25;5055194;28;20068;-70
2021/07/20 06:36:44;;;;;;;9.85;6.30;;;;;;;24.13;48.32;98392.13;5072621;28;20127;-70
2021/07/20 06:39:10;;;;;;;16.60;7.03;;;;;;;24.19;48.11;98399.63;5071273;28;20049;-68
2021/07/20 06:41:37;;;;;;;11.27;7.03;;;;;;;24.22;48.75;98404.34;5073073;28;20053;-70
2021/07/20 06:44:04;;;;;;;9.82;6.07;;;;;;;24.28;47.82;98406.78;5071441;28;20090;-67
2021/07/20 06:46:32;;;;;;;10.10;6.35;;;;;;;24.27;48.06;98419.56;5073492;28;20060;-67
2021/07/20 06:48:58;;;;;;;14.80;7.63;;;;;;;24.25;48.77;98416.41;5072248;28;20042;-68
2021/07/20 06:51:24;;;;;;;13.02;6.82;;;;;;;24.15;48.33;98411.50;5071735;28;20048;-68
2021/07/20 06:53:52;;;;;;;11.20;6.43;;;;;;;24.08;47.42;98414.06;5070662;28;20098;-71
2021/07/20 06:56:39;;;;;;;15.15;7.13;;;;;;;24.03;47.93;98409.69;5037893;28;20456;-69
2021/07/20 06:59:06;;;;;;;9.45;6.22;;;;;;;23.93;47.14;98415.63;5071266;28;20072;-70
2021/07/20 07:01:32;;;;;;;8.93;6.50;;;;;;;23.89;48.00;98418.25;5071067;28;20426;-71
2021/07/20 07:04:08;;;;;;;8.18;6.32;;;;;;;23.84;47.74;98404.97;5037722;28;20032;-70
2021/07/20 07:06:38;;;;;;;10.20;6.47;;;;;;;23.83;47.99;98394.53;5070640;28;20047;-72
2021/07/20 07:09:05;;;;;;;8.18;5.40;;;;;;;23.93;46.63;98407.53;5070411;28;20090;-70
2021/07/20 07:11:31;;;;;;;10.20;6.18;;;;;;;24.00;46.76;98405.78;5071052;28;20147;-70
2021/07/20 07:13:58;;;;;;;6.97;6.13;;;;;;;24.08;46.71;98395.09;5072479;28;20169;-69
2021/07/20 07:16:25;;;;;;;10.82;6.53;;;;;;;24.06;47.75;98406.31;5069703;28;20048;-70
2021/07/20 07:18:51;;;;;;;17.23;6.63;;;;;;;24.14;47.73;98393.69;5071027;28;20040;-68
2021/07/20 07:21:19;;;;;;;8.43;6.30;;;;;;;24.11;47.42;98395.19;5070719;28;20106;-69
2021/07/20 07:23:47;;;;;;;8.38;5.95;;;;;;;24.26;47.40;98401.72;5069995;28;20564;-70
2021/07/20 07:26:14;;;;;;;9.88;6.60;;;;;;;24.21;48.04;98410.13;5054132;28;20044;-70
2021/07/20 07:28:42;;;;;;;7.40;5.50;;;;;;;24.17;46.94;98407.31;5070900;28;20043;-71
2021/07/20 07:31:10;;;;;;;7.82;5.30;;;;;;;24.08;46.01;98414.06;5071869;28;20079;-74
2021/07/20 07:33:36;;;;;;;8.85;5.03;;;;;;;24.13;46.40;98408.38;5037335;28;20084;-77
2021/07/20 07:36:06;;;;;;;8.85;5.22;;;;;;;24.12;46.10;98404.09;5017381;28;20098;-75
2021/07/20 07:38:33;;;;;;;10.00;5.63;;;;;;;24.09;46.55;98393.97;5067498;28;20115;-70
2021/07/20 07:40:59;;;;;;;9.82;5.68;;;;;;;24.16;47.24;98407.69;5067928;28;20041;-71
2021/07/20 07:43:27;;;;;;;6.20;5.20;;;;;;;24.11;46.01;98408.72;5090609;28;20496;-72
2021/07/20 07:45:55;;;;;;;8.20;5.43;;;;;;;24.12;45.81;98410.31;5094735;28;20112;-71
2021/07/20 07:48:26;;;;;;;7.32;5.15;;;;;;;24.15;46.68;98416.91;5087505;28;20040;-70
2021/07/20 07:50:55;;;;;;;10.90;5.63;;;;;;;24.08;46.73;98408.66;5050979;28;20190;-71
2021/07/20 07:53:21;;;;;;;6.95;5.00;;;;;;;24.03;45.74;98396.16;5089107;28;20040;-70
2021/07/20 07:55:50;;;;;;;8.32;5.07;;;;;;;24.19;46.01;98401.56;5087295;28;20093;-70
2021/07/20 07:58:16;;;;;;;8.82;4.93;;;;;;;24.15;46.38;98406.09;5070455;28;20086;-71
2021/07/20 08:00:43;;;;;;;6.78;4.95;;;;;;;24.19;46.13;98396.16;5071207;28;20080;-70
2021/07/20 08:03:10;;;;;;;8.77;4.88;;;;;;;24.29;43.47;98417.25;5088947;28;20558;-70
2021/07/20 08:05:36;;;;;;;6.32;4.20;;;;;;;24.24;42.96;98407.50;5053991;28;20052;-73
2021/07/20 08:08:02;;;;;;;9.15;4.63;;;;;;;24.29;42.44;98398.31;5053594;28;20139;-71
2021/07/20 08:10:30;;;;;;;8.23;4.70;;;;;;;24.20;43.34;98405.84;5089561;28;20051;-70
2021/07/20 08:12:58;;;;;;;6.93;4.28;;;;;;;24.24;43.96;98404.78;5071292;28;20457;-72
2021/07/20 08:15:24;;;;;;;7.25;5.30;;;;;;;24.38;44.54;98401.59;5089334;28;20087;-70
2021/07/20 08:17:51;;;;;;;7.47;5.00;;;;;;;24.43;43.50;98398.66;5087613;28;20082;-71
2021/07/20 08:20:19;;;;;;;7.63;4.57;;;;;;;24.48;43.64;98408.44;5088476;28;20040;-70
2021/07/20 08:22:47;;;;;;;8.02;4.50;;;;;;;24.56;43.66;98403.94;5086847;28;20485;-71
2021/07/20 08:25:36;;;;;;;8.13;4.57;;;;;;;24.58;43.30;98405.16;5069972;28;20055;-70
2021/07/20 08:28:14;;;;;;;11.52;4.65;;;;;;;24.60;42.58;98400.19;5068552;28;20067;-72
2021/07/20 08:30:45;;;;;;;6.45;4.20;;;;;;;24.59;42.65;98395.09;5058051;28;20123;-69
2021/07/20 08:33:22;;;;;;;7.53;4.45;;;;;;;24.62;42.29;98414.19;5066783;28;20155;-70
2021/07/20 08:35:53;;;;;;;8.90;4.28;;;;;;;24.56;41.49;98406.66;5069369;28;20044;-70
2021/07/20 08:38:19;;;;;;;6.15;4.43;;;;;;;24.52;42.42;98403.09;5068946;28;20518;-69
2021/07/20 08:40:48;;;;;;;7.68;4.28;;;;;;;24.46;42.32;98410.72;5067887;28;20049;-69
2021/07/20 08:43:22;;;;;;;5.60;4.00;;;;;;;24.39;41.39;98399.69;5069556;28;20059;-70
2021/07/20 08:46:06;;;;;;;8.02;4.10;;;;;;;24.24;40.95;98410.22;5070226;28;20060;-69
2021/07/20 08:48:47;;;;;;;9.95;4.28;;;;;;;24.31;40.81;98397.97;5069645;28;20585;-70
2021/07/20 08:51:14;;;;;;;;;;;;;;;24.40;40.54;98399.34;5069648;28;20045;-70
2021/07/20 08:53:41;;;;;;;7.63;3.53;;;;;;;24.36;40.40;98393.06;5052047;28;20503;-72
2021/07/20 08:56:08;;;;;;;5.28;3.53;;;;;;;24.40;38.93;98398.56;5067418;28;20059;-72
2021/07/20 08:58:46;;;;;;;7.45;3.67;;;;;;;24.51;37.53;98396.91;5050141;28;20053;-72
2021/07/20 09:01:33;;;;;;;3.50;3.13;;;;;;;24.53;38.11;98391.91;5066403;28;20634;-72
2021/07/20 09:04:03;;;;;;;7.78;4.07;;;;;;;24.46;38.02;98399.88;5051197;28;20393;-70
2021/07/20 09:06:54;;;;;;;6.80;3.53;;;;;;;24.51;37.81;98406.94;5067587;28;20040;-71
2021/07/20 09:09:26;;;;;;;6.53;3.53;;;;;;;24.44;37.22;98402.94;5067801;28;20109;-72
2021/07/20 09:11:57;;;;;;;8.07;4.10;;;;;;;24.41;39.36;98403.63;5066665;28;20406;-71
2021/07/20 09:14:34;;;;;;;4.47;3.35;;;;;;;24.50;38.29;98398.03;5067097;28;20049;-72
2021/07/20 09:17:08;;;;;;;6.93;3.63;;;;;;;24.61;37.82;98396.34;5065151;28;20523;-71
2021/07/20 09:20:08;;;;;;;6.88;3.72;;;;;;;24.61;38.17;98400.97;5048879;28;20139;-72
2021/07/20 09:22:42;;;;;;;5.10;3.70;;;;;;;24.60;37.60;98402.91;5051251;28;20147;-71
2021/07/20 09:25:18;;;;;;;5.28;3.33;;;;;;;24.57;36.71;98392.78;5068511;28;20086;-71
2021/07/20 09:27:52;;;;;;;7.30;3.35;;;;;;;24.58;36.97;98390.84;5068553;28;20060;-70
2021/07/20 09:30:31;;;;;;;4.75;3.40;;;;;;;24.54;36.53;98390.78;5064993;28;20684;-71
2021/07/20 09:33:21;;;;;;;4.68;3.20;;;;;;;24.61;36.37;98395.56;5065939;28;20048;-71
2021/07/20 09:35:59;;;;;;;6.10;3.20;;;;;;;24.64;36.07;98394.84;5068024;28;20052;-72
2021/07/20 09:39:04;;;;;;;9.07;3.42;;;;;;;24.68;37.58;98401.13;5066492;28;20049;-71
2021/07/20 09:41:52;;;;;;;4.93;3.38;;;;;;;24.75;35.26;98403.19;5070268;28;20109;-71
2021/07/20 09:44:23;;;;;;;5.60;3.53;;;;;;;24.63;36.25;98401.41;5071304;28;20068;-71
2021/07/20 09:46:57;;;;;;;3.55;2.75;;;;;;;24.56;35.86;98398.53;5070497;28;20560;-71
2021/07/20 09:49:36;;;;;;;3.25;2.63;;;;;;;24.52;36.50;98384.91;5070469;28;20044;-70
2021/07/20 09:52:13;;;;;;;4.38;2.83;;;;;;;24.53;36.13;98393.81;5069610;28;20076;-70
2021/07/20 09:54:59;;;;;;;5.03;3.30;;;;;;;24.58;36.01;98396.25;5072133;28;20040;-72
2021/07/20 09:57:46;;;;;;;3.85;2.70;;;;;;;24.61;36.14;98400.97;5053175;28;20048;-72
2021/07/20 10:00:21;;;;;;;4.03;2.90;;;;;;;24.67;35.50;98394.91;5085115;28;20044;-70
2021/07/20 10:03:11;;;;;;;4.07;2.88;;;;;;;24.74;36.47;98388.06;5072303;28;20048;-70
2021/07/20 10:05:56;;;;;;;;;;;;;;;24.74;36.45;98393.50;5085560;28;20048;-71
2021/07/20 10:08:47;;;;;;;4.25;2.75;;;;;;;24.68;36.57;98391.06;5069677;28;19975;-71
2021/07/20 10:11:49;;;;;;;2.88;2.58;;;;;;;24.73;36.30;98386.50;5062301;28;20045;-72
2021/07/20 10:14:57;;;;;;;3.50;2.58;;;;;;;24.78;35.76;98380.81;5070880;28;20135;-70
2021/07/20 10:18:00;;;;;;;4.47;2.90;;;;;;;24.87;35.08;98384.88;5054990;28;20422;-70
2021/07/20 10:20:39;;;;;;;5.20;3.08;;;;;;;24.96;34.59;98389.31;5062934;28;20443;-70
2021/07/20 10:23:23;;;;;;;4.13;2.83;;;;;;;24.98;33.72;98387.81;5091217;28;20138;-70
2021/07/20 10:26:16;;;;;;;4.82;2.72;;;;;;;25.01;33.71;98372.75;5088248;28;20048;-71
2021/07/20 10:28:56;;;;;;;5.43;2.20;;;;;;;25.10;34.03;98379.53;5090166;28;20051;-71
2021/07/20 10:31:32;;;;;;;4.75;2.58;;;;;;;25.10;34.31;98386.88;5090151;28;20089;-70
2021/07/20 10:34:08;;;;;;;3.00;2.38;;;;;;;24.95;33.55;98385.81;5073343;28;20044;-71
2021/07/20 10:37:01;;;;;;;3.75;2.47;;;;;;;24.97;34.78;98377.31;5088891;28;20093;-69
2021/07/20 10:39:38;;;;;;;5.32;2.90;;;;;;;25.00;34.26;98374.69;5092572;28;20059;-71
2021/07/20 10:42:15;;;;;;;7.45;2.80;;;;;;;25.03;33.49;98371.25;5089966;28;20415;-69
2021/07/20 10:45:08;;;;;;;4.32;2.80;;;;;;;25.14;34.13;98372.25;5090066;28;20051;-71
2021/07/20 10:47:38;;;;;;;6.32;2.83;;;;;;;25.23;34.98;98361.19;5089444;28;20079;-72
2021/07/20 10:50:11;;;;;;;6.88;2.95;;;;;;;25.18;34.78;98372.34;5069382;28;20142;-71
2021/07/20 10:52:49;;;;;;;4.03;2.88;;;;;;;25.21;34.47;98381.66;5087482;28;20528;-71
2021/07/20 10:55:26;;;;;;;3.90;2.45;;;;;;;25.22;33.73;98372.41;5091996;28;20069;-71
2021/07/20 10:58:10;;;;;;;3.40;2.28;;;;;;;25.28;33.08;98373.69;5089374;28;20055;-69
2021/07/20 11:00:48;;;;;;;6.90;2.50;;;;;;;25.42;32.33;98373.16;5088589;28;20474;-71
2021/07/20 11:03:20;;;;;;;3.15;2.65;;;;;;;25.57;32.80;98383.88;5089061;28;20406;-70
2021/07/20 11:05:49;;;;;;;7.43;2.47;;;;;;;25.66;31.18;98372.00;5089858;28;20401;-70
2021/07/20 11:08:15;;;;;;;6.43;2.42;;;;;;;25.78;30.31;98367.16;5071159;28;20138;-70
2021/07/20 11:10:53;;;;;;;3.75;2.30;;;;;;;25.86;31.24;98351.03;5070137;28;20123;-70
2021/07/20 11:13:21;;;;;;;6.50;2.20;;;;;;;25.88;32.40;98365.78;5068076;28;20127;-70
2021/07/20 11:15:53;;;;;;;7.18;2.70;;;;;;;25.95;32.09;98374.06;5051486;28;20558;-71
2021/07/20 11:18:23;;;;;;;3.78;2.20;;;;;;;25.99;31.56;98372.19;5036656;28;20490;-69
2021/07/20 11:20:51;;;;;;;5.30;2.88;;;;;;;26.08;32.10;98363.00;5068187;28;20048;-70
2021/07/20 11:23:18;;;;;;;3.05;2.38;;;;;;;26.15;32.47;98358.47;5051883;28;20541;-73
2021/07/20 11:25:48;;;;;;;3.00;2.20;;;;;;;26.18;31.99;98370.53;5068887;28;20044;-72
2021/07/20 11:28:15;;;;;;;;;;;;;;;26.01;32.22;98379.97;5070964;28;20048;-70
2021/07/20 11:30:42;;;;;;;4.25;2.33;;;;;;;25.98;31.97;98367.91;5067070;28;20006;-70
2021/07/20 11:33:15;;;;;;;5.32;2.53;;;;;;;25.93;32.18;98365.50;5049597;28;20332;-72
2021/07/20 11:35:45;;;;;;;5.85;2.50;;;;;;;25.95;32.96;98379.50;5048709;28;20542;-70
2021/07/20 11:38:14;;;;;;;4.63;2.20;;;;;;;26.00;31.83;98367.53;5054769;28;20469;-69
2021/07/20 11:40:48;;;;;;;3.53;2.27;;;;;;;26.08;30.64;98363.00;5066250;28;20551;-72
2021/07/20 11:43:21;;;;;;;6.13;2.67;;;;;;;26.30;30.65;98370.31;5066630;28;20086;-70
2021/07/20 11:46:00;;;;;;;4.43;2.70;;;;;;;26.40;29.98;98358.81;5050546;28;20152;-70
2021/07/20 11:48:31;;;;;;;8.90;2.17;;;;;;;26.54;30.43;98363.69;5068661;28;20047;-70
2021/07/20 11:51:08;;;;;;;5.63;2.20;;;;;;;26.58;30.63;98336.53;5078846;28;20317;-70
2021/07/20 11:53:46;;;;;;;11.05;2.88;;;;;;;26.55;30.86;98370.69;5087949;28;20048;-71
2021/07/20 11:56:23;;;;;;;6.15;3.08;;;;;;;26.52;30.63;98367.91;5086377;28;20044;-71